createdAt,value
2023-07-09T00:00:02.977Z,24.90
2023-07-09T00:02:04.848Z,24.90
2023-07-09T00:04:08.646Z,24.90
2023-07-09T00:06:10.550Z,24.90
2023-07-09T00:08:32.373Z,24.80
2023-07-09T00:10:35.418Z,24.80
2023-07-09T00:12:37.081Z,24.80
2023-07-09T00:14:38.899Z,24.80
2023-07-09T00:16:41.316Z,24.80
2023-07-09T00:18:43.769Z,24.80
2023-07-09T00:20:45.406Z,24.80
2023-07-09T00:22:53.272Z,24.70
2023-07-09T00:24:57.930Z,24.70
2023-07-09T00:26:59.616Z,24.70
2023-07-09T00:29:01.241Z,24.70
2023-07-09T00:31:02.823Z,24.70
2023-07-09T00:33:05.685Z,24.70
2023-07-09T00:35:08.002Z,24.70
2023-07-09T00:37:11.507Z,24.60
2023-07-09T00:39:20.048Z,24.60
2023-07-09T00:41:23.312Z,24.60
2023-07-09T00:43:25.095Z,24.60
2023-07-09T00:45:27.586Z,24.50
2023-07-09T00:47:43.060Z,24.50
2023-07-09T00:49:47.557Z,24.50
2023-07-09T00:51:49.623Z,24.50
2023-07-09T00:53:52.872Z,24.50
2023-07-09T00:55:57.628Z,24.50
2023-07-09T00:58:02.234Z,24.50
2023-07-09T01:00:14.133Z,24.50
2023-07-09T01:02:15.959Z,24.40
2023-07-09T01:04:18.920Z,24.40
2023-07-09T01:06:24.719Z,24.40
2023-07-09T01:08:29.655Z,24.30
2023-07-09T01:10:31.262Z,24.30
2023-07-09T01:12:33.013Z,24.30
2023-07-09T01:14:36.954Z,24.30
2023-07-09T01:16:40.467Z,24.30
2023-07-09T01:18:42.044Z,24.30
2023-07-09T01:20:44.481Z,24.30
2023-07-09T01:22:49.958Z,24.30
2023-07-09T01:24:54.287Z,24.30
2023-07-09T01:26:56.020Z,24.30
2023-07-09T01:28:58.210Z,24.30
2023-07-09T01:31:01.495Z,24.30
2023-07-09T01:33:03.669Z,24.30
2023-07-09T01:35:07.925Z,24.30
2023-07-09T01:37:09.679Z,24.20
2023-07-09T01:39:11.509Z,24.10
2023-07-09T01:41:14.755Z,24.10
2023-07-09T01:43:16.389Z,24.10
2023-07-09T01:45:18.636Z,24.00
2023-07-09T01:47:20.786Z,24.00
2023-07-09T01:49:22.418Z,24.00
2023-07-09T01:51:25.463Z,24.00
2023-07-09T01:53:27.294Z,23.90
2023-07-09T01:55:29.827Z,24.00
2023-07-09T01:57:34.649Z,24.00
2023-07-09T01:59:42.313Z,23.90
2023-07-09T02:01:44.023Z,23.90
2023-07-09T02:03:45.765Z,24.00
2023-07-09T02:05:47.529Z,23.90
2023-07-09T02:07:49.236Z,23.90
2023-07-09T02:09:50.915Z,23.90
2023-07-09T02:11:52.595Z,23.90
2023-07-09T02:13:54.241Z,23.80
2023-07-09T02:15:55.908Z,23.80
2023-07-09T02:18:00.443Z,23.80
2023-07-09T02:20:02.290Z,23.80
2023-07-09T02:22:04.583Z,23.80
2023-07-09T02:24:06.433Z,23.80
2023-07-09T02:26:08.128Z,23.80
2023-07-09T02:28:09.841Z,23.80
2023-07-09T02:30:12.239Z,23.80
2023-07-09T02:32:18.050Z,23.80
2023-07-09T02:34:20.122Z,23.70
2023-07-09T02:36:21.731Z,23.70
2023-07-09T02:38:23.374Z,23.70
2023-07-09T02:40:25.223Z,23.70
2023-07-09T02:42:26.860Z,23.70
2023-07-09T02:44:28.500Z,23.70
2023-07-09T02:46:30.307Z,23.60
2023-07-09T02:48:31.934Z,23.60
2023-07-09T02:50:33.522Z,23.60
2023-07-09T02:52:35.148Z,23.60
2023-07-09T02:54:36.867Z,23.70
2023-07-09T02:56:38.426Z,23.70
2023-07-09T02:58:40.058Z,23.70
2023-07-09T03:00:41.662Z,23.60
2023-07-09T03:02:43.301Z,23.70
2023-07-09T03:04:45.002Z,23.60
2023-07-09T03:06:46.720Z,23.60
2023-07-09T03:08:48.318Z,23.60
2023-07-09T03:10:50.010Z,23.50
2023-07-09T03:12:51.721Z,23.50
2023-07-09T03:14:53.305Z,23.50
2023-07-09T03:16:55.373Z,23.50
2023-07-09T03:18:57.481Z,23.40
2023-07-09T03:20:59.451Z,23.50
2023-07-09T03:23:01.067Z,23.50
2023-07-09T03:25:02.649Z,23.40
2023-07-09T03:27:04.491Z,23.40
2023-07-09T03:29:06.037Z,23.40
2023-07-09T03:31:07.622Z,23.40
2023-07-09T03:33:10.418Z,23.40
2023-07-09T03:35:12.960Z,23.40
2023-07-09T03:37:14.610Z,23.40
2023-07-09T03:39:16.334Z,23.40
2023-07-09T03:41:17.996Z,23.40
2023-07-09T03:43:19.813Z,23.30
2023-07-09T03:45:21.521Z,23.30
2023-07-09T03:47:23.230Z,23.20
2023-07-09T03:49:24.873Z,23.20
2023-07-09T03:51:26.496Z,23.20
2023-07-09T03:53:28.077Z,23.20
2023-07-09T03:55:29.815Z,23.10
2023-07-09T03:57:32.306Z,23.10
2023-07-09T03:59:33.920Z,23.10
2023-07-09T04:01:35.578Z,23.10
2023-07-09T04:03:37.206Z,23.10
2023-07-09T04:05:38.942Z,23.10
2023-07-09T04:07:40.657Z,23.10
2023-07-09T04:09:42.336Z,23.10
2023-07-09T04:11:43.893Z,23.10
2023-07-09T04:13:45.551Z,23.10
2023-07-09T04:15:47.883Z,23.10
2023-07-09T04:17:49.639Z,23.10
2023-07-09T04:19:51.658Z,23.10
2023-07-09T04:21:53.251Z,23.10
2023-07-09T04:23:56.055Z,23.10
2023-07-09T04:25:58.586Z,23.10
2023-07-09T04:28:00.818Z,23.00
2023-07-09T04:30:02.490Z,23.10
2023-07-09T04:32:04.299Z,23.10
2023-07-09T04:34:06.082Z,23.00
2023-07-09T04:36:10.216Z,23.00
2023-07-09T04:38:11.869Z,23.10
2023-07-09T04:40:13.793Z,23.10
2023-07-09T04:42:16.397Z,23.20
2023-07-09T04:44:18.064Z,23.20
2023-07-09T04:46:19.746Z,23.20
2023-07-09T04:48:21.357Z,23.20
2023-07-09T04:50:23.013Z,23.20
2023-07-09T04:52:24.669Z,23.30
2023-07-09T04:54:26.743Z,23.30
2023-07-09T04:56:30.974Z,23.30
2023-07-09T04:58:32.766Z,23.30
2023-07-09T05:00:34.410Z,23.40
2023-07-09T05:02:39.097Z,23.40
2023-07-09T05:04:43.529Z,23.40
2023-07-09T05:06:45.204Z,23.40
2023-07-09T05:08:49.203Z,23.50
2023-07-09T05:10:51.928Z,23.50
2023-07-09T05:12:55.719Z,23.40
2023-07-09T05:15:00.339Z,23.40
2023-07-09T05:17:01.895Z,23.50
2023-07-09T05:19:03.782Z,23.50
2023-07-09T05:21:05.434Z,23.50
2023-07-09T05:23:06.992Z,23.50
2023-07-09T05:25:08.845Z,23.50
2023-07-09T05:27:10.478Z,23.50
2023-07-09T05:29:12.194Z,23.60
2023-07-09T05:31:13.995Z,23.60
2023-07-09T05:33:15.626Z,23.60
2023-07-09T05:35:17.234Z,23.60
2023-07-09T05:37:18.849Z,23.60
2023-07-09T05:39:20.552Z,23.60
2023-07-09T05:41:22.187Z,23.60
2023-07-09T05:43:23.856Z,23.60
2023-07-09T05:45:25.408Z,23.70
2023-07-09T05:47:27.056Z,23.80
2023-07-09T05:49:28.693Z,23.80
2023-07-09T05:51:30.427Z,23.80
2023-07-09T05:53:35.515Z,23.80
2023-07-09T05:55:37.536Z,23.80
2023-07-09T05:57:39.436Z,23.80
2023-07-09T05:59:41.047Z,23.80
2023-07-09T06:01:42.978Z,23.80
2023-07-09T06:03:44.631Z,23.80
2023-07-09T06:05:46.310Z,23.90
2023-07-09T06:07:48.349Z,23.90
2023-07-09T06:09:49.971Z,23.90
2023-07-09T06:11:52.088Z,24.00
2023-07-09T06:13:53.756Z,24.00
2023-07-09T06:15:55.902Z,24.00
2023-07-09T06:17:57.545Z,24.00
2023-07-09T06:19:59.886Z,24.00
2023-07-09T06:22:01.603Z,24.00
2023-07-09T06:24:03.267Z,24.10
2023-07-09T06:26:06.744Z,24.10
2023-07-09T06:28:08.573Z,24.10
2023-07-09T06:30:10.712Z,24.10
2023-07-09T06:32:12.355Z,24.20
2023-07-09T06:34:14.087Z,24.10
2023-07-09T06:36:15.673Z,24.20
2023-07-09T06:38:17.363Z,24.20
2023-07-09T06:40:19.145Z,24.20
2023-07-09T06:42:20.723Z,24.30
2023-07-09T06:44:22.344Z,24.30
2023-07-09T06:46:24.028Z,24.30
2023-07-09T06:48:26.559Z,24.30
2023-07-09T06:50:28.210Z,24.30
2023-07-09T06:52:32.037Z,24.30
2023-07-09T06:54:33.861Z,24.30
2023-07-09T06:56:35.658Z,24.30
2023-07-09T06:58:37.331Z,24.40
2023-07-09T07:00:39.155Z,24.40
2023-07-09T07:02:40.775Z,24.40
2023-07-09T07:04:42.774Z,24.40
2023-07-09T07:06:46.135Z,24.40
2023-07-09T07:08:48.650Z,24.40
2023-07-09T07:10:50.789Z,24.40
2023-07-09T07:12:52.401Z,24.40
2023-07-09T07:14:54.602Z,24.40
2023-07-09T07:16:57.619Z,24.50
2023-07-09T07:18:59.298Z,24.50
2023-07-09T07:21:01.134Z,24.50
2023-07-09T07:23:02.775Z,24.50
2023-07-09T07:25:05.135Z,24.50
2023-07-09T07:27:06.754Z,24.50
2023-07-09T07:29:08.453Z,24.50
2023-07-09T07:31:10.631Z,24.50
2023-07-09T07:33:14.240Z,24.50
2023-07-09T07:35:16.205Z,24.50
2023-07-09T07:37:20.792Z,24.60
2023-07-09T07:39:22.420Z,24.60
2023-07-09T07:41:24.043Z,24.60
2023-07-09T07:43:25.661Z,24.50
2023-07-09T07:45:27.308Z,24.60
2023-07-09T07:47:28.917Z,24.60
2023-07-09T07:49:30.505Z,24.60
2023-07-09T07:51:32.074Z,24.60
2023-07-09T07:53:33.688Z,24.60
2023-07-09T07:55:36.881Z,24.60
2023-07-09T07:57:38.512Z,24.60
2023-07-09T07:59:40.296Z,24.60
2023-07-09T08:01:42.012Z,24.70
2023-07-09T08:03:43.854Z,24.60
2023-07-09T08:05:49.213Z,24.60
2023-07-09T08:07:51.082Z,24.70
2023-07-09T08:09:52.728Z,24.70
2023-07-09T08:11:54.313Z,24.70
2023-07-09T08:13:56.482Z,24.70
2023-07-09T08:15:58.138Z,24.70
2023-07-09T08:17:59.955Z,24.70
2023-07-09T08:20:01.937Z,24.70
2023-07-09T08:22:03.603Z,24.70
2023-07-09T08:24:05.462Z,24.70
2023-07-09T08:26:07.356Z,24.70
2023-07-09T08:28:09.149Z,24.70
2023-07-09T08:30:11.086Z,24.70
2023-07-09T08:32:13.092Z,24.70
2023-07-09T08:34:15.048Z,24.70
2023-07-09T08:36:16.708Z,24.70
2023-07-09T08:38:19.817Z,24.70
2023-07-09T08:40:21.581Z,24.70
2023-07-09T08:42:46.944Z,24.70
2023-07-09T08:45:20.134Z,24.70
2023-07-09T08:47:24.864Z,24.70
2023-07-09T08:49:55.930Z,24.70
2023-07-09T08:51:58.537Z,24.80
2023-07-09T08:54:00.944Z,24.70
2023-07-09T08:56:03.120Z,24.70
2023-07-09T08:58:10.842Z,24.70
2023-07-09T09:00:21.588Z,24.80
2023-07-09T09:02:28.912Z,24.80
2023-07-09T09:04:32.448Z,24.80
2023-07-09T09:06:36.294Z,24.80
2023-07-09T09:08:43.741Z,24.80
2023-07-09T09:10:48.399Z,24.80
2023-07-09T09:12:53.018Z,24.80
2023-07-09T09:14:58.842Z,24.80
2023-07-09T09:17:00.524Z,24.80
2023-07-09T09:19:02.675Z,24.80
2023-07-09T09:21:13.964Z,24.80
2023-07-09T09:23:16.563Z,24.80
2023-07-09T09:25:34.361Z,24.80
2023-07-09T09:27:35.929Z,24.80
2023-07-09T09:29:37.593Z,24.90
2023-07-09T09:31:39.679Z,24.80
2023-07-09T09:33:45.602Z,24.80
2023-07-09T09:35:49.204Z,24.80
2023-07-09T09:37:51.951Z,24.90
2023-07-09T09:40:11.308Z,24.90
2023-07-09T09:42:15.090Z,24.90
2023-07-09T09:44:25.757Z,24.90
2023-07-09T09:46:28.309Z,24.90
2023-07-09T09:48:30.058Z,24.90
2023-07-09T09:50:32.930Z,24.90
2023-07-09T09:52:35.250Z,24.90
2023-07-09T09:54:40.757Z,24.90
2023-07-09T09:56:43.321Z,24.90
2023-07-09T09:58:44.965Z,24.90
2023-07-09T10:00:53.706Z,24.90
2023-07-09T10:03:00.128Z,24.90
2023-07-09T10:05:02.180Z,24.90
2023-07-09T10:07:06.785Z,24.90
2023-07-09T10:09:30.091Z,24.90
2023-07-09T10:11:55.254Z,24.90
2023-07-09T10:13:58.829Z,24.90
2023-07-09T10:16:22.729Z,24.90
2023-07-09T10:18:38.062Z,24.90
2023-07-09T10:20:57.683Z,24.90
2023-07-09T10:23:17.828Z,24.90
2023-07-09T10:25:28.555Z,24.90
2023-07-09T10:27:49.541Z,25.00
2023-07-09T10:30:21.001Z,24.90
2023-07-09T10:32:45.768Z,25.00
2023-07-09T10:34:56.658Z,24.90
2023-07-09T10:37:04.249Z,24.90
2023-07-09T10:39:06.505Z,25.00
2023-07-09T10:43:22.075Z,25.00
2023-07-09T10:45:29.187Z,25.00
2023-07-09T10:47:36.125Z,24.90
2023-07-09T10:49:42.700Z,25.00
2023-07-09T10:51:55.578Z,24.90
2023-07-09T10:53:59.093Z,25.00
2023-07-09T10:56:03.548Z,25.00
2023-07-09T10:58:22.386Z,25.00
2023-07-09T11:00:34.734Z,25.00
2023-07-09T11:02:37.809Z,25.00
2023-07-09T11:04:44.062Z,25.00
2023-07-09T11:06:47.973Z,25.00
2023-07-09T11:08:52.573Z,25.00
2023-07-09T11:10:57.318Z,25.00
2023-07-09T11:13:02.128Z,25.10
2023-07-09T11:15:09.359Z,25.00
2023-07-09T11:17:20.146Z,25.10
2023-07-09T11:19:22.014Z,25.00
2023-07-09T11:21:23.578Z,25.10
2023-07-09T11:23:26.582Z,25.00
2023-07-09T11:25:30.230Z,25.10
2023-07-09T11:27:32.150Z,25.00
2023-07-09T11:29:35.277Z,25.10
2023-07-09T11:31:41.175Z,25.10
2023-07-09T11:33:47.770Z,25.10
2023-07-09T11:36:07.835Z,25.10
2023-07-09T11:38:09.552Z,25.10
2023-07-09T11:40:12.671Z,25.10
2023-07-09T11:42:29.681Z,25.10
2023-07-09T11:44:32.178Z,25.10
2023-07-09T11:46:36.227Z,25.10
2023-07-09T11:48:39.440Z,25.10
2023-07-09T11:50:46.124Z,25.10
2023-07-09T11:52:56.007Z,25.10
2023-07-09T11:54:57.647Z,25.10
2023-07-09T11:57:00.868Z,25.10
2023-07-09T11:59:02.533Z,25.10
2023-07-09T12:01:10.966Z,25.10
2023-07-09T12:03:16.421Z,25.10
2023-07-09T12:05:21.642Z,25.10
2023-07-09T12:07:24.516Z,25.10
2023-07-09T12:09:32.746Z,25.10
2023-07-09T12:11:35.448Z,25.10
2023-07-09T12:13:37.704Z,25.10
2023-07-09T12:15:40.146Z,25.10
2023-07-09T12:17:41.846Z,25.10
2023-07-09T12:19:43.431Z,25.20
2023-07-09T12:21:46.412Z,25.10
2023-07-09T12:23:48.100Z,25.10
2023-07-09T12:25:50.846Z,25.10
2023-07-09T12:27:54.303Z,25.20
2023-07-09T12:29:57.203Z,25.20
2023-07-09T12:31:59.543Z,25.20
2023-07-09T12:34:01.263Z,25.20
2023-07-09T12:36:06.855Z,25.20
2023-07-09T12:38:18.229Z,25.20
2023-07-09T12:40:24.674Z,25.20
2023-07-09T12:42:30.826Z,25.20
2023-07-09T12:44:35.547Z,25.20
2023-07-09T12:46:37.425Z,25.20
2023-07-09T12:48:39.139Z,25.20
2023-07-09T12:50:40.709Z,25.20
2023-07-09T12:52:49.062Z,25.20
2023-07-09T12:54:57.284Z,25.20
2023-07-09T12:57:00.457Z,25.20
2023-07-09T12:59:03.319Z,25.20
2023-07-09T13:01:14.865Z,25.20
2023-07-09T13:03:16.747Z,25.20
2023-07-09T13:05:20.203Z,25.20
2023-07-09T13:07:24.848Z,25.20
2023-07-09T13:09:26.831Z,25.20
2023-07-09T13:11:35.520Z,25.20
2023-07-09T13:13:37.130Z,25.20
2023-07-09T13:15:38.762Z,25.30
2023-07-09T13:17:43.424Z,25.20
2023-07-09T13:19:45.035Z,25.20
2023-07-09T13:21:47.308Z,25.30
2023-07-09T13:23:49.739Z,25.30
2023-07-09T13:25:51.544Z,25.30
2023-07-09T13:27:54.580Z,25.30
2023-07-09T13:29:56.396Z,25.30
2023-07-09T13:31:58.484Z,25.30
2023-07-09T13:34:00.388Z,25.30
2023-07-09T13:36:02.013Z,25.30
2023-07-09T13:38:05.508Z,25.30
2023-07-09T13:40:08.453Z,25.30
2023-07-09T13:42:14.380Z,25.30
2023-07-09T13:44:20.220Z,25.30
2023-07-09T13:46:21.865Z,25.30
2023-07-09T13:48:24.546Z,25.30
2023-07-09T13:50:26.247Z,25.30
2023-07-09T13:52:27.860Z,25.30
2023-07-09T13:54:37.038Z,25.30
2023-07-09T13:56:40.823Z,25.30
2023-07-09T13:58:42.786Z,25.30
2023-07-09T14:00:44.902Z,25.30
2023-07-09T14:02:47.121Z,25.30
2023-07-09T14:04:48.738Z,25.30
2023-07-09T14:06:50.403Z,25.30
2023-07-09T14:08:52.017Z,25.30
2023-07-09T14:10:53.583Z,25.30
2023-07-09T14:12:57.775Z,25.30
2023-07-09T14:15:00.949Z,25.30
2023-07-09T14:17:02.681Z,25.30
2023-07-09T14:19:04.387Z,25.40
2023-07-09T14:21:16.109Z,25.30
2023-07-09T14:23:18.228Z,25.30
2023-07-09T14:25:21.613Z,25.40
2023-07-09T14:27:23.263Z,25.30
2023-07-09T14:29:25.581Z,25.30
2023-07-09T14:31:28.199Z,25.40
2023-07-09T14:33:29.943Z,25.40
2023-07-09T14:35:31.691Z,25.40
2023-07-09T14:37:33.385Z,25.40
2023-07-09T14:39:34.975Z,25.40
2023-07-09T14:41:36.607Z,25.40
2023-07-09T14:43:38.260Z,25.40
2023-07-09T14:45:40.072Z,25.40
2023-07-09T14:47:41.706Z,25.40
2023-07-09T14:49:43.283Z,25.40
2023-07-09T14:51:44.931Z,25.40
2023-07-09T14:53:46.663Z,25.40
2023-07-09T14:55:48.271Z,25.40
2023-07-09T14:57:50.191Z,25.40
2023-07-09T14:59:51.827Z,25.40
2023-07-09T15:01:54.262Z,25.40
2023-07-09T15:03:55.962Z,25.40
2023-07-09T15:05:57.661Z,25.40
2023-07-09T15:07:59.287Z,25.40
2023-07-09T15:10:01.320Z,25.40
2023-07-09T15:12:04.330Z,25.40
2023-07-09T15:14:10.468Z,25.40
2023-07-09T15:16:12.271Z,25.40
2023-07-09T15:18:15.095Z,25.40
2023-07-09T15:20:18.772Z,25.40
2023-07-09T15:22:27.057Z,25.40
2023-07-09T15:24:30.264Z,25.40
2023-07-09T15:26:32.692Z,25.40
2023-07-09T15:28:34.357Z,25.40
2023-07-09T15:30:38.111Z,25.40
2023-07-09T15:32:39.703Z,25.40
2023-07-09T15:34:41.534Z,25.50
2023-07-09T15:36:45.043Z,25.40
2023-07-09T15:38:46.728Z,25.40
2023-07-09T15:40:49.249Z,25.50
2023-07-09T15:42:52.851Z,25.50
2023-07-09T15:44:54.511Z,25.40
2023-07-09T15:46:57.021Z,25.50
2023-07-09T15:48:58.694Z,25.50
2023-07-09T15:51:01.109Z,25.50
2023-07-09T15:53:05.390Z,25.50
2023-07-09T15:55:13.299Z,25.50
2023-07-09T15:57:16.824Z,25.50
2023-07-09T15:59:21.237Z,25.50
2023-07-09T16:01:25.251Z,25.50
2023-07-09T16:03:28.053Z,25.50
2023-07-09T16:05:30.883Z,25.50
2023-07-09T16:07:32.502Z,25.50
2023-07-09T16:09:34.268Z,25.50
2023-07-09T16:11:38.625Z,25.50
2023-07-09T16:13:40.486Z,25.50
2023-07-09T16:15:42.098Z,25.50
2023-07-09T16:17:43.995Z,25.50
2023-07-09T16:19:45.708Z,25.50
2023-07-09T16:21:48.354Z,25.50
2023-07-09T16:23:50.035Z,25.50
2023-07-09T16:25:51.812Z,25.50
2023-07-09T16:27:53.438Z,25.50
2023-07-09T16:29:54.993Z,25.50
2023-07-09T16:31:57.627Z,25.50
2023-07-09T16:33:59.246Z,25.60
2023-07-09T16:36:05.356Z,25.50
2023-07-09T16:38:10.700Z,25.50
2023-07-09T16:40:14.512Z,25.60
2023-07-09T16:42:17.429Z,25.60
2023-07-09T16:44:19.347Z,25.60
2023-07-09T16:46:25.464Z,25.60
2023-07-09T16:48:27.597Z,25.50
2023-07-09T16:50:29.355Z,25.50
2023-07-09T16:52:30.995Z,25.50
2023-07-09T16:54:32.565Z,25.50
2023-07-09T16:56:34.181Z,25.60
2023-07-09T16:58:36.461Z,25.60
2023-07-09T17:00:38.220Z,25.60
2023-07-09T17:02:40.969Z,25.60
2023-07-09T17:04:42.632Z,25.60
2023-07-09T17:06:44.186Z,25.60
2023-07-09T17:08:47.788Z,25.60
2023-07-09T17:10:50.571Z,25.60
2023-07-09T17:12:56.561Z,25.60
2023-07-09T17:14:58.231Z,25.60
2023-07-09T17:16:59.844Z,25.60
2023-07-09T17:19:01.489Z,25.60
2023-07-09T17:21:04.288Z,25.60
2023-07-09T17:23:05.943Z,25.60
2023-07-09T17:25:29.737Z,25.60
2023-07-09T17:27:33.126Z,25.60
2023-07-09T17:29:34.804Z,25.60
2023-07-09T17:31:36.501Z,25.60
2023-07-09T17:33:38.145Z,25.60
2023-07-09T17:35:40.395Z,25.60
2023-07-09T17:37:52.539Z,25.60
2023-07-09T17:39:54.297Z,25.60
2023-07-09T17:41:56.591Z,25.60
2023-07-09T17:43:58.264Z,25.60
2023-07-09T17:46:00.027Z,25.60
2023-07-09T17:48:01.733Z,25.60
2023-07-09T17:50:06.001Z,25.60
2023-07-09T17:52:15.077Z,25.60
2023-07-09T17:54:17.470Z,25.60
2023-07-09T17:56:20.772Z,25.60
2023-07-09T17:58:26.551Z,25.60
2023-07-09T18:00:30.077Z,25.60
2023-07-09T18:02:33.627Z,25.70
2023-07-09T18:04:35.301Z,25.60
2023-07-09T18:06:36.960Z,25.60
2023-07-09T18:08:38.547Z,25.60
2023-07-09T18:10:41.609Z,25.60
2023-07-09T18:12:43.241Z,25.60
2023-07-09T18:14:46.177Z,25.60
2023-07-09T18:16:48.382Z,25.60
2023-07-09T18:18:50.223Z,25.70
2023-07-09T18:20:51.890Z,25.70
2023-07-09T18:22:53.564Z,25.70
2023-07-09T18:24:55.623Z,25.70
2023-07-09T18:26:57.230Z,25.70
2023-07-09T18:28:58.892Z,25.70
2023-07-09T18:33:06.612Z,25.70
2023-07-09T18:35:20.888Z,25.70
2023-07-09T18:37:22.811Z,25.70
2023-07-09T18:39:24.443Z,25.70
2023-07-09T18:41:27.415Z,25.70
2023-07-09T18:43:32.131Z,25.70
2023-07-09T18:45:34.501Z,25.70
2023-07-09T18:47:36.156Z,25.70
2023-07-09T18:49:37.857Z,25.70
2023-07-09T18:51:40.140Z,25.70
2023-07-09T18:53:42.608Z,25.70
2023-07-09T18:55:44.226Z,25.70
2023-07-09T18:57:45.836Z,25.70
2023-07-09T18:59:47.799Z,25.70
2023-07-09T19:01:50.244Z,25.70
2023-07-09T19:03:52.119Z,25.70
2023-07-09T19:05:53.853Z,25.70
2023-07-09T19:07:57.756Z,25.70
2023-07-09T19:10:01.152Z,25.70
2023-07-09T19:12:03.537Z,25.70
2023-07-09T19:14:05.802Z,25.70
2023-07-09T19:16:18.290Z,25.70
2023-07-09T19:18:22.499Z,25.70
2023-07-09T19:20:25.178Z,25.70
2023-07-09T19:22:26.794Z,25.70
2023-07-09T19:24:29.433Z,25.70
2023-07-09T19:26:30.987Z,25.80
2023-07-09T19:28:32.568Z,25.80
2023-07-09T19:30:34.225Z,25.80
2023-07-09T19:32:36.276Z,25.80
2023-07-09T19:34:42.215Z,25.80
2023-07-09T19:36:43.940Z,25.80
2023-07-09T19:38:46.031Z,25.80
2023-07-09T19:40:47.714Z,25.80
2023-07-09T19:42:50.509Z,25.80
2023-07-09T19:44:52.210Z,25.80
2023-07-09T19:46:53.974Z,25.80
2023-07-09T19:48:56.380Z,25.80
2023-07-09T19:50:57.983Z,25.80
2023-07-09T19:53:00.904Z,25.80
2023-07-09T19:55:05.762Z,25.80
2023-07-09T19:57:07.709Z,25.80
2023-07-09T19:59:09.356Z,25.80
2023-07-09T20:01:12.588Z,25.80
2023-07-09T20:03:29.000Z,25.80
2023-07-09T20:05:32.213Z,25.80
2023-07-09T20:07:33.866Z,25.80
2023-07-09T20:09:35.465Z,25.80
2023-07-09T20:11:37.117Z,25.80
2023-07-09T20:13:39.011Z,25.80
2023-07-09T20:15:41.387Z,25.80
2023-07-09T20:17:43.565Z,25.80
2023-07-09T20:19:45.279Z,25.80
2023-07-09T20:21:47.005Z,25.80
2023-07-09T20:23:48.634Z,25.80
2023-07-09T20:25:50.259Z,25.90
2023-07-09T20:27:52.607Z,25.90
2023-07-09T20:29:54.186Z,25.90
2023-07-09T20:31:56.490Z,25.90
2023-07-09T20:34:08.418Z,25.90
2023-07-09T20:36:10.069Z,25.90
2023-07-09T20:38:16.185Z,25.90
2023-07-09T20:40:19.453Z,25.90
2023-07-09T20:42:21.068Z,25.90
2023-07-09T20:44:24.184Z,25.90
2023-07-09T20:46:25.839Z,25.90
2023-07-09T20:48:29.148Z,25.90
2023-07-09T20:50:30.861Z,25.90
2023-07-09T20:52:32.430Z,25.90
2023-07-09T20:54:35.043Z,25.90
2023-07-09T20:56:36.728Z,25.90
2023-07-09T20:58:38.377Z,26.00
2023-07-09T21:00:40.456Z,26.00
2023-07-09T21:02:42.496Z,26.00
2023-07-09T21:04:44.147Z,26.00
2023-07-09T21:06:46.703Z,26.00
2023-07-09T21:08:48.405Z,26.00
2023-07-09T21:10:50.755Z,26.00
2023-07-09T21:12:52.851Z,26.00
2023-07-09T21:14:54.684Z,26.00
2023-07-09T21:16:58.017Z,26.00
2023-07-09T21:18:59.820Z,26.00
2023-07-09T21:21:02.000Z,26.00
2023-07-09T21:23:03.586Z,26.00
2023-07-09T21:25:19.135Z,26.00
2023-07-09T21:27:20.703Z,26.00
2023-07-09T21:29:25.962Z,26.00
2023-07-09T21:31:27.568Z,26.00
2023-07-09T21:33:29.941Z,26.00
2023-07-09T21:35:31.600Z,26.00
2023-07-09T21:37:35.290Z,26.00
2023-07-09T21:39:37.924Z,26.00
2023-07-09T21:41:39.544Z,26.00
2023-07-09T21:43:41.188Z,26.00
2023-07-09T21:45:43.690Z,26.10
2023-07-09T21:47:45.431Z,26.10
2023-07-09T21:49:47.091Z,26.10
2023-07-09T21:51:48.947Z,26.10
2023-07-09T21:54:11.485Z,26.10
2023-07-09T21:56:13.558Z,26.10
2023-07-09T21:58:16.233Z,26.10
2023-07-09T22:00:32.608Z,26.10
2023-07-09T22:02:37.693Z,26.00
2023-07-09T22:04:39.301Z,26.00
2023-07-09T22:06:41.000Z,26.10
2023-07-09T22:08:47.187Z,26.10
2023-07-09T22:10:51.921Z,26.10
2023-07-09T22:12:55.560Z,26.10
2023-07-09T22:15:00.014Z,26.00
2023-07-09T22:17:01.689Z,26.10
2023-07-09T22:19:03.302Z,26.10
2023-07-09T22:21:04.873Z,26.10
2023-07-09T22:23:09.719Z,26.00
2023-07-09T22:25:15.718Z,26.00
2023-07-09T22:27:17.365Z,26.00
2023-07-09T22:29:18.982Z,26.00
2023-07-09T22:31:21.577Z,26.00
2023-07-09T22:33:23.254Z,26.00
2023-07-09T22:35:26.443Z,26.00
2023-07-09T22:37:28.204Z,26.00
2023-07-09T22:39:29.779Z,26.00
2023-07-09T22:41:31.413Z,26.00
2023-07-09T22:43:33.105Z,26.00
2023-07-09T22:45:34.712Z,26.00
2023-07-09T22:47:36.595Z,26.00
2023-07-09T22:49:39.195Z,26.00
2023-07-09T22:51:41.030Z,26.00
2023-07-09T22:53:42.642Z,26.00
2023-07-09T22:55:45.270Z,26.10
2023-07-09T22:57:46.874Z,26.00
2023-07-09T22:59:48.519Z,26.00
2023-07-09T23:01:50.506Z,26.00
2023-07-09T23:03:52.360Z,26.00
2023-07-09T23:05:54.065Z,26.10
2023-07-09T23:07:56.229Z,26.00
2023-07-09T23:09:57.857Z,26.10
2023-07-09T23:12:01.267Z,26.00
2023-07-09T23:14:02.963Z,26.00
2023-07-09T23:16:04.857Z,26.00
2023-07-09T23:18:11.507Z,26.00
2023-07-09T23:20:15.147Z,26.00
2023-07-09T23:22:16.728Z,26.00
2023-07-09T23:24:18.553Z,26.00
2023-07-09T23:26:20.242Z,26.00
2023-07-09T23:28:21.913Z,26.00
2023-07-09T23:30:27.768Z,26.00
2023-07-09T23:32:29.398Z,26.00
2023-07-09T23:34:31.053Z,26.00
2023-07-09T23:36:33.234Z,26.00
2023-07-09T23:38:34.896Z,26.00
2023-07-09T23:40:36.567Z,26.00
2023-07-09T23:42:38.435Z,26.00
2023-07-09T23:44:40.408Z,26.00
2023-07-09T23:46:42.300Z,26.00
2023-07-09T23:48:46.716Z,26.00
2023-07-09T23:50:51.469Z,26.00
2023-07-09T23:52:53.251Z,26.00
2023-07-09T23:54:55.129Z,26.00
2023-07-09T23:56:57.690Z,26.00
2023-07-09T23:58:59.833Z,26.00
